首页
METAR-TAF:

METAR-TAF

机场 :

大阪國際機場

大阪, 日本

纬度: 34-47N, 经度: 135-27E, 海拔: 12米

当前天气观测

该预报发布于1小时和2分钟前的10:00 UTC
风速6节,风向西转西南,在南转南东西转西北之间变化
温度 31°C
湿度 66%
气压 1007 hPa
能见度10公里或以上
少量云层高于3000英尺
多云

METAR: RJOO 231000Z 24006KT 160V290 9999 FEW030 BKN/// 31/24 Q1007 RMK 1CU030 A2975

时间: 20:02 (11:02 UTC)

预报

该预报发布于5小时和57分钟前的05:05 UTC
预报有效从23日的 06点(UTC)到 24日的 12点(UTC)
风速9节,风向南转西南
能见度10公里或以上
少量云层高于2500英尺
成为
从 23日的 06点(UTC)到 23日的 08点(UTC)
风速7节,风向西转西南
成为
从 24日的 00点(UTC)到 24日的 03点(UTC)
风速4节,风向西南
短暂存在
从 24日的 03点(UTC)到 24日的 09点(UTC)
少量云层高于1000英尺
散云层高于2000英尺
少量云层高于2000英尺, 积雨云.
多云层高于3000英尺
雷暴, 小雨,

TAF: RJOO 230505Z 2306/2412 21009KT 9999 FEW025 BECMG 2306/2308 25007KT BECMG 2400/2403 22004KT TEMPO 2403/2409 -TSRA FEW010 SCT020 FEW020CB BKN030

超过4000个机场的气象观测和天气预报(METAR&TAF报告)。

可查询的气象台以黄色和红色小点在地图上表示。

将鼠标移到小点上方,可查看气象台名称。

然后点击查看天气观测和预报。

如需切换地图:点击带黑十字的绿色按钮放大地图;点击带横线的绿色按钮缩小地图;或者点击绿色箭头查看邻近地区的地图。


METAR-TAF: